sensor_id;sensor_type;location;lat;lon;timestamp;temperature;humidity
38090;DHT22;23904;52.322;10.232;2023-02-18T00:00:19;7.40;99.90
38090;DHT22;23904;52.322;10.232;2023-02-18T00:02:46;7.40;99.90
38090;DHT22;23904;52.322;10.232;2023-02-18T00:05:12;7.40;99.90
38090;DHT22;23904;52.322;10.232;2023-02-18T00:07:39;7.50;99.90
38090;DHT22;23904;52.322;10.232;2023-02-18T00:10:07;7.40;99.90
38090;DHT22;23904;52.322;10.232;2023-02-18T00:12:34;7.40;99.90
38090;DHT22;23904;52.322;10.232;2023-02-18T00:15:00;7.40;99.90
38090;DHT22;23904;52.322;10.232;2023-02-18T00:17:25;7.40;99.90
38090;DHT22;23904;52.322;10.232;2023-02-18T00:19:51;7.40;99.90
38090;DHT22;23904;52.322;10.232;2023-02-18T00:22:16;7.40;99.90
38090;DHT22;23904;52.322;10.232;2023-02-18T00:24:42;7.40;99.90
38090;DHT22;23904;52.322;10.232;2023-02-18T00:27:07;7.40;99.90
38090;DHT22;23904;52.322;10.232;2023-02-18T00:29:33;7.40;99.90
38090;DHT22;23904;52.322;10.232;2023-02-18T00:31:59;7.40;99.90
38090;DHT22;23904;52.322;10.232;2023-02-18T00:34:24;7.40;99.90
38090;DHT22;23904;52.322;10.232;2023-02-18T00:36:50;7.40;99.90
38090;DHT22;23904;52.322;10.232;2023-02-18T00:39:16;7.40;99.90
38090;DHT22;23904;52.322;10.232;2023-02-18T00:41:42;7.40;99.90
38090;DHT22;23904;52.322;10.232;2023-02-18T00:44:09;7.40;99.90
38090;DHT22;23904;52.322;10.232;2023-02-18T00:46:35;7.40;99.90
38090;DHT22;23904;52.322;10.232;2023-02-18T00:49:02;7.50;99.90
38090;DHT22;23904;52.322;10.232;2023-02-18T00:51:29;7.50;99.90
38090;DHT22;23904;52.322;10.232;2023-02-18T00:53:54;7.50;99.90
38090;DHT22;23904;52.322;10.232;2023-02-18T00:56:20;7.50;99.90
38090;DHT22;23904;52.322;10.232;2023-02-18T00:58:46;7.50;99.90
38090;DHT22;23904;52.322;10.232;2023-02-18T01:01:12;7.50;99.90
38090;DHT22;23904;52.322;10.232;2023-02-18T01:03:40;7.50;99.90
38090;DHT22;23904;52.322;10.232;2023-02-18T01:06:06;7.50;99.90
38090;DHT22;23904;52.322;10.232;2023-02-18T01:08:34;7.50;99.90
38090;DHT22;23904;52.322;10.232;2023-02-18T01:11:00;7.50;99.90
38090;DHT22;23904;52.322;10.232;2023-02-18T01:13:27;7.40;99.90
38090;DHT22;23904;52.322;10.232;2023-02-18T01:15:54;7.50;99.90
38090;DHT22;23904;52.322;10.232;2023-02-18T01:18:20;7.50;99.90
38090;DHT22;23904;52.322;10.232;2023-02-18T01:20:47;7.50;99.90
38090;DHT22;23904;52.322;10.232;2023-02-18T01:23:13;7.50;99.90
38090;DHT22;23904;52.322;10.232;2023-02-18T01:25:39;7.50;99.90
38090;DHT22;23904;52.322;10.232;2023-02-18T01:28:06;7.60;99.90
38090;DHT22;23904;52.322;10.232;2023-02-18T01:30:33;7.60;99.90
38090;DHT22;23904;52.322;10.232;2023-02-18T01:32:59;7.60;99.90
38090;DHT22;23904;52.322;10.232;2023-02-18T01:35:25;7.70;99.90
38090;DHT22;23904;52.322;10.232;2023-02-18T01:37:51;7.70;99.90
38090;DHT22;23904;52.322;10.232;2023-02-18T01:40:21;7.70;99.90
38090;DHT22;23904;52.322;10.232;2023-02-18T01:42:49;7.80;99.90
38090;DHT22;23904;52.322;10.232;2023-02-18T01:48:14;7.80;99.90
38090;DHT22;23904;52.322;10.232;2023-02-18T01:50:46;7.80;99.90
38090;DHT22;23904;52.322;10.232;2023-02-18T01:53:19;7.90;99.90
38090;DHT22;23904;52.322;10.232;2023-02-18T01:55:47;7.90;99.90
38090;DHT22;23904;52.322;10.232;2023-02-18T01:58:14;7.90;99.90
38090;DHT22;23904;52.322;10.232;2023-02-18T02:00:40;7.90;99.90
38090;DHT22;23904;52.322;10.232;2023-02-18T02:03:06;7.90;99.90
38090;DHT22;23904;52.322;10.232;2023-02-18T02:05:33;7.90;99.90
38090;DHT22;23904;52.322;10.232;2023-02-18T02:08:00;8.00;99.90
38090;DHT22;23904;52.322;10.232;2023-02-18T02:10:37;8.00;99.90
38090;DHT22;23904;52.322;10.232;2023-02-18T02:13:28;8.00;99.90
38090;DHT22;23904;52.322;10.232;2023-02-18T02:19:24;8.00;99.90
38090;DHT22;23904;52.322;10.232;2023-02-18T02:25:28;8.00;99.90
38090;DHT22;23904;52.322;10.232;2023-02-18T02:28:40;8.00;99.90
38090;DHT22;23904;52.322;10.232;2023-02-18T02:39:55;8.00;99.90
38090;DHT22;23904;52.322;10.232;2023-02-18T02:45:30;8.00;99.90
38090;DHT22;23904;52.322;10.232;2023-02-18T02:48:26;8.00;99.90
38090;DHT22;23904;52.322;10.232;2023-02-18T02:51:06;8.10;99.90
38090;DHT22;23904;52.322;10.232;2023-02-18T02:53:36;8.10;99.90
38090;DHT22;23904;52.322;10.232;2023-02-18T02:56:02;8.10;99.90
38090;DHT22;23904;52.322;10.232;2023-02-18T02:58:28;8.10;99.90
38090;DHT22;23904;52.322;10.232;2023-02-18T03:13:04;8.10;99.90
38090;DHT22;23904;52.322;10.232;2023-02-18T03:15:49;8.10;99.90
38090;DHT22;23904;52.322;10.232;2023-02-18T03:21:32;8.20;99.90
38090;DHT22;23904;52.322;10.232;2023-02-18T03:24:43;8.20;99.90
38090;DHT22;23904;52.322;10.232;2023-02-18T03:27:15;8.20;99.90
38090;DHT22;23904;52.322;10.232;2023-02-18T03:29:45;8.10;99.90
38090;DHT22;23904;52.322;10.232;2023-02-18T03:32:17;8.20;99.90
38090;DHT22;23904;52.322;10.232;2023-02-18T03:34:48;8.20;99.90
38090;DHT22;23904;52.322;10.232;2023-02-18T03:37:16;8.20;99.90
38090;DHT22;23904;52.322;10.232;2023-02-18T03:39:46;8.20;99.90
38090;DHT22;23904;52.322;10.232;2023-02-18T03:42:15;8.20;99.90
38090;DHT22;23904;52.322;10.232;2023-02-18T03:44:43;8.20;99.90
38090;DHT22;23904;52.322;10.232;2023-02-18T03:47:09;8.20;99.90
38090;DHT22;23904;52.322;10.232;2023-02-18T03:49:35;8.20;99.90
38090;DHT22;23904;52.322;10.232;2023-02-18T03:52:00;8.20;99.90
38090;DHT22;23904;52.322;10.232;2023-02-18T03:54:26;8.20;99.90
38090;DHT22;23904;52.322;10.232;2023-02-18T03:56:51;8.20;99.90
38090;DHT22;23904;52.322;10.232;2023-02-18T03:59:17;8.20;99.90
38090;DHT22;23904;52.322;10.232;2023-02-18T04:01:43;8.20;99.90
38090;DHT22;23904;52.322;10.232;2023-02-18T04:04:08;8.20;99.90
38090;DHT22;23904;52.322;10.232;2023-02-18T04:06:34;8.20;99.90
38090;DHT22;23904;52.322;10.232;2023-02-18T04:08:59;8.20;99.90
38090;DHT22;23904;52.322;10.232;2023-02-18T04:11:25;8.20;99.90
38090;DHT22;23904;52.322;10.232;2023-02-18T04:13:51;8.20;99.90
38090;DHT22;23904;52.322;10.232;2023-02-18T04:16:16;8.20;99.90
38090;DHT22;23904;52.322;10.232;2023-02-18T04:18:42;8.20;99.90
38090;DHT22;23904;52.322;10.232;2023-02-18T04:21:07;8.20;99.90
38090;DHT22;23904;52.322;10.232;2023-02-18T04:23:33;8.20;99.90
38090;DHT22;23904;52.322;10.232;2023-02-18T04:25:58;8.30;99.90
38090;DHT22;23904;52.322;10.232;2023-02-18T04:28:24;8.20;99.90
38090;DHT22;23904;52.322;10.232;2023-02-18T04:30:49;8.30;99.90
38090;DHT22;23904;52.322;10.232;2023-02-18T04:33:15;8.30;99.90
38090;DHT22;23904;52.322;10.232;2023-02-18T04:35:40;8.20;99.90
38090;DHT22;23904;52.322;10.232;2023-02-18T04:38:07;8.20;99.90
38090;DHT22;23904;52.322;10.232;2023-02-18T04:40:33;8.20;99.90
38090;DHT22;23904;52.322;10.232;2023-02-18T04:42:59;8.20;99.90
38090;DHT22;23904;52.322;10.232;2023-02-18T04:45:26;8.20;99.90
38090;DHT22;23904;52.322;10.232;2023-02-18T04:47:52;8.10;99.90
38090;DHT22;23904;52.322;10.232;2023-02-18T04:50:18;8.00;99.90
38090;DHT22;23904;52.322;10.232;2023-02-18T04:52:44;8.00;99.90
38090;DHT22;23904;52.322;10.232;2023-02-18T04:55:10;8.00;99.90
38090;DHT22;23904;52.322;10.232;2023-02-18T04:57:35;7.90;99.90
38090;DHT22;23904;52.322;10.232;2023-02-18T05:00:01;7.90;99.90
38090;DHT22;23904;52.322;10.232;2023-02-18T05:02:31;8.00;99.90
38090;DHT22;23904;52.322;10.232;2023-02-18T05:04:56;8.00;99.90
38090;DHT22;23904;52.322;10.232;2023-02-18T05:07:22;8.00;99.90
38090;DHT22;23904;52.322;10.232;2023-02-18T05:09:48;8.00;99.90
38090;DHT22;23904;52.322;10.232;2023-02-18T05:12:13;7.90;99.90
38090;DHT22;23904;52.322;10.232;2023-02-18T05:14:39;7.80;99.90
38090;DHT22;23904;52.322;10.232;2023-02-18T05:17:04;7.80;99.90
38090;DHT22;23904;52.322;10.232;2023-02-18T05:19:30;7.70;99.90
38090;DHT22;23904;52.322;10.232;2023-02-18T05:21:55;7.70;99.90
38090;DHT22;23904;52.322;10.232;2023-02-18T05:24:21;7.60;99.90
38090;DHT22;23904;52.322;10.232;2023-02-18T05:26:46;7.60;99.90
38090;DHT22;23904;52.322;10.232;2023-02-18T05:29:12;7.60;99.90
38090;DHT22;23904;52.322;10.232;2023-02-18T05:31:37;7.60;99.90
38090;DHT22;23904;52.322;10.232;2023-02-18T05:34:03;7.50;99.90
38090;DHT22;23904;52.322;10.232;2023-02-18T05:36:29;7.60;99.90
38090;DHT22;23904;52.322;10.232;2023-02-18T05:38:54;7.60;99.90
38090;DHT22;23904;52.322;10.232;2023-02-18T05:41:20;7.60;99.90
38090;DHT22;23904;52.322;10.232;2023-02-18T05:43:46;7.60;99.90
38090;DHT22;23904;52.322;10.232;2023-02-18T05:46:30;7.60;99.90
38090;DHT22;23904;52.322;10.232;2023-02-18T05:48:56;7.60;99.90
38090;DHT22;23904;52.322;10.232;2023-02-18T05:51:21;7.60;99.90
38090;DHT22;23904;52.322;10.232;2023-02-18T05:53:47;7.60;99.90
38090;DHT22;23904;52.322;10.232;2023-02-18T05:56:12;7.60;99.90
38090;DHT22;23904;52.322;10.232;2023-02-18T05:58:38;7.50;99.90
38090;DHT22;23904;52.322;10.232;2023-02-18T06:01:04;7.60;99.90
38090;DHT22;23904;52.322;10.232;2023-02-18T06:03:29;7.60;99.90
38090;DHT22;23904;52.322;10.232;2023-02-18T06:05:55;7.60;99.90
38090;DHT22;23904;52.322;10.232;2023-02-18T06:08:21;7.60;99.90
38090;DHT22;23904;52.322;10.232;2023-02-18T06:10:46;7.60;99.90
38090;DHT22;23904;52.322;10.232;2023-02-18T06:13:12;7.60;99.90
38090;DHT22;23904;52.322;10.232;2023-02-18T06:15:38;7.60;99.90
38090;DHT22;23904;52.322;10.232;2023-02-18T06:18:04;7.60;99.90
38090;DHT22;23904;52.322;10.232;2023-02-18T06:20:31;7.50;99.90
38090;DHT22;23904;52.322;10.232;2023-02-18T06:22:56;7.60;99.90
38090;DHT22;23904;52.322;10.232;2023-02-18T06:25:22;7.60;99.90
38090;DHT22;23904;52.322;10.232;2023-02-18T06:27:48;7.60;99.90
38090;DHT22;23904;52.322;10.232;2023-02-18T06:30:13;7.60;99.90
38090;DHT22;23904;52.322;10.232;2023-02-18T06:32:39;7.60;99.90
38090;DHT22;23904;52.322;10.232;2023-02-18T06:35:05;7.60;99.90
38090;DHT22;23904;52.322;10.232;2023-02-18T06:37:31;7.60;99.90
38090;DHT22;23904;52.322;10.232;2023-02-18T06:39:57;7.60;99.90
38090;DHT22;23904;52.322;10.232;2023-02-18T06:42:22;7.60;99.90
38090;DHT22;23904;52.322;10.232;2023-02-18T06:44:48;7.70;99.90
38090;DHT22;23904;52.322;10.232;2023-02-18T06:47:13;7.70;99.90
38090;DHT22;23904;52.322;10.232;2023-02-18T06:49:39;7.70;99.90
38090;DHT22;23904;52.322;10.232;2023-02-18T06:52:04;7.70;99.90
38090;DHT22;23904;52.322;10.232;2023-02-18T06:54:31;7.70;99.90
38090;DHT22;23904;52.322;10.232;2023-02-18T06:56:57;7.70;99.90
38090;DHT22;23904;52.322;10.232;2023-02-18T06:59:23;7.80;99.90
38090;DHT22;23904;52.322;10.232;2023-02-18T07:01:49;7.70;99.90
38090;DHT22;23904;52.322;10.232;2023-02-18T07:04:14;7.70;99.90
38090;DHT22;23904;52.322;10.232;2023-02-18T07:06:40;7.70;99.90
38090;DHT22;23904;52.322;10.232;2023-02-18T07:09:06;7.70;99.90
38090;DHT22;23904;52.322;10.232;2023-02-18T07:11:31;7.70;99.90
38090;DHT22;23904;52.322;10.232;2023-02-18T07:13:57;7.80;99.90
38090;DHT22;23904;52.322;10.232;2023-02-18T07:16:22;7.80;99.90
38090;DHT22;23904;52.322;10.232;2023-02-18T07:18:48;7.80;99.90
38090;DHT22;23904;52.322;10.232;2023-02-18T07:21:14;7.80;99.90
38090;DHT22;23904;52.322;10.232;2023-02-18T07:23:39;7.90;99.90
38090;DHT22;23904;52.322;10.232;2023-02-18T07:26:10;8.00;99.90
38090;DHT22;23904;52.322;10.232;2023-02-18T07:28:37;8.00;99.90
38090;DHT22;23904;52.322;10.232;2023-02-18T07:31:04;8.00;99.90
38090;DHT22;23904;52.322;10.232;2023-02-18T07:33:31;8.10;99.90
38090;DHT22;23904;52.322;10.232;2023-02-18T07:35:58;8.10;99.90
38090;DHT22;23904;52.322;10.232;2023-02-18T07:38:25;8.10;99.90
38090;DHT22;23904;52.322;10.232;2023-02-18T07:40:52;8.10;99.90
38090;DHT22;23904;52.322;10.232;2023-02-18T07:43:18;8.10;99.90
38090;DHT22;23904;52.322;10.232;2023-02-18T07:45:44;8.10;99.90
38090;DHT22;23904;52.322;10.232;2023-02-18T07:48:10;8.20;99.90
38090;DHT22;23904;52.322;10.232;2023-02-18T07:50:41;8.20;99.90
38090;DHT22;23904;52.322;10.232;2023-02-18T07:53:09;8.20;99.90
38090;DHT22;23904;52.322;10.232;2023-02-18T07:55:35;8.20;99.90
38090;DHT22;23904;52.322;10.232;2023-02-18T07:58:24;8.40;99.90
38090;DHT22;23904;52.322;10.232;2023-02-18T08:00:51;8.40;99.90
38090;DHT22;23904;52.322;10.232;2023-02-18T08:03:22;8.40;99.90
38090;DHT22;23904;52.322;10.232;2023-02-18T08:05:50;8.50;99.90
38090;DHT22;23904;52.322;10.232;2023-02-18T08:08:19;8.50;99.90
38090;DHT22;23904;52.322;10.232;2023-02-18T08:10:46;8.50;99.90
38090;DHT22;23904;52.322;10.232;2023-02-18T08:13:13;8.50;99.90
38090;DHT22;23904;52.322;10.232;2023-02-18T08:15:39;8.50;99.90
38090;DHT22;23904;52.322;10.232;2023-02-18T08:18:06;8.60;99.90
38090;DHT22;23904;52.322;10.232;2023-02-18T08:20:37;8.60;99.90
38090;DHT22;23904;52.322;10.232;2023-02-18T08:23:03;8.60;99.90
38090;DHT22;23904;52.322;10.232;2023-02-18T08:25:29;8.60;99.90
38090;DHT22;23904;52.322;10.232;2023-02-18T08:27:55;8.60;99.90
38090;DHT22;23904;52.322;10.232;2023-02-18T08:30:21;8.70;99.90
38090;DHT22;23904;52.322;10.232;2023-02-18T08:32:47;8.70;99.90
38090;DHT22;23904;52.322;10.232;2023-02-18T08:35:14;8.80;99.90
38090;DHT22;23904;52.322;10.232;2023-02-18T08:37:40;8.80;99.90
38090;DHT22;23904;52.322;10.232;2023-02-18T08:40:06;8.90;99.90
38090;DHT22;23904;52.322;10.232;2023-02-18T08:42:32;9.10;99.90
38090;DHT22;23904;52.322;10.232;2023-02-18T08:44:58;9.10;99.90
38090;DHT22;23904;52.322;10.232;2023-02-18T08:47:23;9.30;99.90
38090;DHT22;23904;52.322;10.232;2023-02-18T08:49:49;9.40;99.90
38090;DHT22;23904;52.322;10.232;2023-02-18T08:52:14;9.50;99.90
38090;DHT22;23904;52.322;10.232;2023-02-18T08:54:40;9.60;99.90
38090;DHT22;23904;52.322;10.232;2023-02-18T08:57:05;9.70;99.90
38090;DHT22;23904;52.322;10.232;2023-02-18T08:59:31;9.70;99.90
38090;DHT22;23904;52.322;10.232;2023-02-18T09:01:56;9.70;99.90
38090;DHT22;23904;52.322;10.232;2023-02-18T09:04:22;9.80;99.90
38090;DHT22;23904;52.322;10.232;2023-02-18T09:06:48;9.80;99.90
38090;DHT22;23904;52.322;10.232;2023-02-18T09:09:15;9.80;99.90
38090;DHT22;23904;52.322;10.232;2023-02-18T09:11:44;9.80;99.90
38090;DHT22;23904;52.322;10.232;2023-02-18T09:14:12;9.80;99.90
38090;DHT22;23904;52.322;10.232;2023-02-18T09:16:39;9.90;99.90
38090;DHT22;23904;52.322;10.232;2023-02-18T09:19:05;9.90;99.90
38090;DHT22;23904;52.322;10.232;2023-02-18T09:21:32;9.90;99.90
38090;DHT22;23904;52.322;10.232;2023-02-18T09:23:57;10.00;99.90
38090;DHT22;23904;52.322;10.232;2023-02-18T09:26:23;10.00;99.90
38090;DHT22;23904;52.322;10.232;2023-02-18T09:28:51;10.10;99.90
38090;DHT22;23904;52.322;10.232;2023-02-18T09:31:19;10.10;99.90
38090;DHT22;23904;52.322;10.232;2023-02-18T09:33:51;10.20;99.90
38090;DHT22;23904;52.322;10.232;2023-02-18T09:36:21;10.20;99.90
38090;DHT22;23904;52.322;10.232;2023-02-18T09:38:48;10.20;99.90
38090;DHT22;23904;52.322;10.232;2023-02-18T09:41:42;10.30;99.90
38090;DHT22;23904;52.322;10.232;2023-02-18T09:47:04;10.30;99.90
38090;DHT22;23904;52.322;10.232;2023-02-18T09:49:37;10.30;99.90
38090;DHT22;23904;52.322;10.232;2023-02-18T09:52:13;10.40;99.90
38090;DHT22;23904;52.322;10.232;2023-02-18T09:54:42;10.40;99.90
38090;DHT22;23904;52.322;10.232;2023-02-18T09:57:25;10.50;99.90
38090;DHT22;23904;52.322;10.232;2023-02-18T10:00:00;10.50;99.90
38090;DHT22;23904;52.322;10.232;2023-02-18T10:02:29;10.50;99.90
38090;DHT22;23904;52.322;10.232;2023-02-18T10:04:56;10.50;99.90
38090;DHT22;23904;52.322;10.232;2023-02-18T10:07:28;10.60;99.90
38090;DHT22;23904;52.322;10.232;2023-02-18T10:10:00;10.60;99.90
38090;DHT22;23904;52.322;10.232;2023-02-18T10:12:29;10.60;99.90
38090;DHT22;23904;52.322;10.232;2023-02-18T10:14:59;10.50;99.90
38090;DHT22;23904;52.322;10.232;2023-02-18T10:17:28;10.50;99.90
38090;DHT22;23904;52.322;10.232;2023-02-18T10:19:56;10.60;99.90
38090;DHT22;23904;52.322;10.232;2023-02-18T10:22:24;10.60;99.90
38090;DHT22;23904;52.322;10.232;2023-02-18T10:24:59;10.60;99.90
38090;DHT22;23904;52.322;10.232;2023-02-18T10:27:31;10.50;99.90
38090;DHT22;23904;52.322;10.232;2023-02-18T10:30:17;10.60;99.90
38090;DHT22;23904;52.322;10.232;2023-02-18T10:32:54;10.60;99.90
38090;DHT22;23904;52.322;10.232;2023-02-18T10:35:33;10.60;99.90
38090;DHT22;23904;52.322;10.232;2023-02-18T10:38:18;10.60;99.90
38090;DHT22;23904;52.322;10.232;2023-02-18T10:40:50;10.60;99.90
38090;DHT22;23904;52.322;10.232;2023-02-18T10:43:54;10.60;99.90
38090;DHT22;23904;52.322;10.232;2023-02-18T10:46:48;10.70;99.90
38090;DHT22;23904;52.322;10.232;2023-02-18T10:49:58;10.70;99.90
38090;DHT22;23904;52.322;10.232;2023-02-18T10:52:41;10.70;99.90
38090;DHT22;23904;52.322;10.232;2023-02-18T10:55:14;10.70;99.90
38090;DHT22;23904;52.322;10.232;2023-02-18T10:57:53;10.60;99.90
38090;DHT22;23904;52.322;10.232;2023-02-18T11:00:25;10.60;99.90
38090;DHT22;23904;52.322;10.232;2023-02-18T11:03:25;10.60;99.90
38090;DHT22;23904;52.322;10.232;2023-02-18T11:06:00;10.60;99.90
38090;DHT22;23904;52.322;10.232;2023-02-18T11:08:28;10.60;99.90
38090;DHT22;23904;52.322;10.232;2023-02-18T11:11:10;10.60;99.90
38090;DHT22;23904;52.322;10.232;2023-02-18T11:13:40;10.60;99.90
38090;DHT22;23904;52.322;10.232;2023-02-18T11:16:06;10.60;99.90
38090;DHT22;23904;52.322;10.232;2023-02-18T11:21:27;10.60;99.90
38090;DHT22;23904;52.322;10.232;2023-02-18T11:23:57;10.70;99.90
38090;DHT22;23904;52.322;10.232;2023-02-18T11:26:32;10.70;99.90
38090;DHT22;23904;52.322;10.232;2023-02-18T11:29:06;10.60;99.90
38090;DHT22;23904;52.322;10.232;2023-02-18T11:31:45;10.60;99.90
38090;DHT22;23904;52.322;10.232;2023-02-18T11:34:19;10.60;99.90
38090;DHT22;23904;52.322;10.232;2023-02-18T11:36:47;10.70;99.90
38090;DHT22;23904;52.322;10.232;2023-02-18T11:39:24;10.70;99.90
38090;DHT22;23904;52.322;10.232;2023-02-18T11:42:06;10.70;99.90
38090;DHT22;23904;52.322;10.232;2023-02-18T11:44:40;10.60;99.90
38090;DHT22;23904;52.322;10.232;2023-02-18T11:49:41;10.60;99.90
38090;DHT22;23904;52.322;10.232;2023-02-18T11:52:35;10.60;99.90
38090;DHT22;23904;52.322;10.232;2023-02-18T11:57:34;10.60;99.90
38090;DHT22;23904;52.322;10.232;2023-02-18T12:00:14;10.60;99.90
38090;DHT22;23904;52.322;10.232;2023-02-18T12:02:51;10.50;99.90
38090;DHT22;23904;52.322;10.232;2023-02-18T12:05:25;10.50;99.90
38090;DHT22;23904;52.322;10.232;2023-02-18T12:07:59;10.50;99.90
38090;DHT22;23904;52.322;10.232;2023-02-18T12:10:37;10.40;99.90
38090;DHT22;23904;52.322;10.232;2023-02-18T12:13:31;10.40;99.90
38090;DHT22;23904;52.322;10.232;2023-02-18T12:16:06;10.30;99.90
38090;DHT22;23904;52.322;10.232;2023-02-18T12:24:07;10.20;99.90
38090;DHT22;23904;52.322;10.232;2023-02-18T12:26:47;10.30;99.90
38090;DHT22;23904;52.322;10.232;2023-02-18T12:35:02;10.20;99.90
38090;DHT22;23904;52.322;10.232;2023-02-18T12:38:09;10.20;99.90
38090;DHT22;23904;52.322;10.232;2023-02-18T12:44:02;10.20;99.90
38090;DHT22;23904;52.322;10.232;2023-02-18T12:49:51;10.20;99.90
38090;DHT22;23904;52.322;10.232;2023-02-18T12:52:31;10.20;99.90
38090;DHT22;23904;52.322;10.232;2023-02-18T12:55:30;10.20;99.90
38090;DHT22;23904;52.322;10.232;2023-02-18T13:00:55;10.20;99.90
38090;DHT22;23904;52.322;10.232;2023-02-18T13:04:14;10.20;99.90
38090;DHT22;23904;52.322;10.232;2023-02-18T13:12:36;10.10;99.90
38090;DHT22;23904;52.322;10.232;2023-02-18T13:15:20;10.20;99.90
38090;DHT22;23904;52.322;10.232;2023-02-18T13:18:19;10.20;99.90
38090;DHT22;23904;52.322;10.232;2023-02-18T13:20:50;10.30;99.90
38090;DHT22;23904;52.322;10.232;2023-02-18T13:23:29;10.30;99.90
38090;DHT22;23904;52.322;10.232;2023-02-18T13:26:00;10.30;99.90
38090;DHT22;23904;52.322;10.232;2023-02-18T13:28:48;10.30;99.90
38090;DHT22;23904;52.322;10.232;2023-02-18T13:31:51;10.20;99.90
38090;DHT22;23904;52.322;10.232;2023-02-18T13:34:31;10.20;99.90
38090;DHT22;23904;52.322;10.232;2023-02-18T13:39:51;10.20;99.90
38090;DHT22;23904;52.322;10.232;2023-02-18T13:47:43;10.20;99.90
38090;DHT22;23904;52.322;10.232;2023-02-18T13:53:14;10.20;99.90
38090;DHT22;23904;52.322;10.232;2023-02-18T13:56:09;10.20;99.90
38090;DHT22;23904;52.322;10.232;2023-02-18T13:58:50;10.30;99.90
38090;DHT22;23904;52.322;10.232;2023-02-18T14:03:58;10.20;99.90
38090;DHT22;23904;52.322;10.232;2023-02-18T14:06:31;10.20;99.90
38090;DHT22;23904;52.322;10.232;2023-02-18T14:11:55;10.20;99.90
38090;DHT22;23904;52.322;10.232;2023-02-18T14:19:55;10.10;99.90
38090;DHT22;23904;52.322;10.232;2023-02-18T14:22:45;10.10;99.90
38090;DHT22;23904;52.322;10.232;2023-02-18T14:27:49;10.10;99.90
38090;DHT22;23904;52.322;10.232;2023-02-18T14:30:19;10.10;99.90
38090;DHT22;23904;52.322;10.232;2023-02-18T14:32:58;10.10;99.90
38090;DHT22;23904;52.322;10.232;2023-02-18T14:35:51;10.10;99.90
38090;DHT22;23904;52.322;10.232;2023-02-18T14:41:47;10.20;99.90
38090;DHT22;23904;52.322;10.232;2023-02-18T14:51:19;10.10;99.90
38090;DHT22;23904;52.322;10.232;2023-02-18T14:53:47;10.10;99.90
38090;DHT22;23904;52.322;10.232;2023-02-18T14:56:15;10.00;99.90
38090;DHT22;23904;52.322;10.232;2023-02-18T14:58:48;10.00;99.90
38090;DHT22;23904;52.322;10.232;2023-02-18T15:01:21;10.00;99.90
38090;DHT22;23904;52.322;10.232;2023-02-18T15:03:51;10.00;99.90
38090;DHT22;23904;52.322;10.232;2023-02-18T15:08:52;10.00;99.90
38090;DHT22;23904;52.322;10.232;2023-02-18T15:11:20;10.10;99.90
38090;DHT22;23904;52.322;10.232;2023-02-18T15:13:47;10.00;99.90
38090;DHT22;23904;52.322;10.232;2023-02-18T15:16:17;10.10;99.90
38090;DHT22;23904;52.322;10.232;2023-02-18T15:19:00;10.10;99.90
38090;DHT22;23904;52.322;10.232;2023-02-18T15:21:33;10.10;99.90
38090;DHT22;23904;52.322;10.232;2023-02-18T15:24:08;10.20;99.90
38090;DHT22;23904;52.322;10.232;2023-02-18T15:26:41;10.20;99.90
38090;DHT22;23904;52.322;10.232;2023-02-18T15:29:18;10.20;99.90
38090;DHT22;23904;52.322;10.232;2023-02-18T15:31:47;10.30;99.90
38090;DHT22;23904;52.322;10.232;2023-02-18T15:37:01;10.30;99.90
38090;DHT22;23904;52.322;10.232;2023-02-18T15:39:29;10.30;99.90
38090;DHT22;23904;52.322;10.232;2023-02-18T15:42:00;10.30;99.90
38090;DHT22;23904;52.322;10.232;2023-02-18T15:44:29;10.30;99.90
38090;DHT22;23904;52.322;10.232;2023-02-18T15:47:04;10.30;99.90
38090;DHT22;23904;52.322;10.232;2023-02-18T15:49:34;10.30;99.90
38090;DHT22;23904;52.322;10.232;2023-02-18T15:52:02;10.30;99.90
38090;DHT22;23904;52.322;10.232;2023-02-18T15:54:28;10.30;99.90
38090;DHT22;23904;52.322;10.232;2023-02-18T15:56:56;10.30;99.90
38090;DHT22;23904;52.322;10.232;2023-02-18T15:59:33;10.30;99.90
38090;DHT22;23904;52.322;10.232;2023-02-18T16:02:18;10.20;99.90
38090;DHT22;23904;52.322;10.232;2023-02-18T16:04:58;10.20;99.90
38090;DHT22;23904;52.322;10.232;2023-02-18T16:07:28;10.20;99.90
38090;DHT22;23904;52.322;10.232;2023-02-18T16:10:21;10.10;99.90
38090;DHT22;23904;52.322;10.232;2023-02-18T16:12:52;10.10;99.90
38090;DHT22;23904;52.322;10.232;2023-02-18T16:15:24;10.10;99.90
38090;DHT22;23904;52.322;10.232;2023-02-18T16:17:51;10.10;99.90
38090;DHT22;23904;52.322;10.232;2023-02-18T16:22:50;10.10;99.90
38090;DHT22;23904;52.322;10.232;2023-02-18T16:25:26;10.10;99.90
38090;DHT22;23904;52.322;10.232;2023-02-18T16:30:28;10.10;99.90
38090;DHT22;23904;52.322;10.232;2023-02-18T16:32:56;10.10;99.90
38090;DHT22;23904;52.322;10.232;2023-02-18T16:35:24;10.10;99.90
38090;DHT22;23904;52.322;10.232;2023-02-18T16:37:53;10.10;99.90
38090;DHT22;23904;52.322;10.232;2023-02-18T16:40:41;10.10;99.90
38090;DHT22;23904;52.322;10.232;2023-02-18T16:43:11;10.10;99.90
38090;DHT22;23904;52.322;10.232;2023-02-18T16:45:42;10.20;99.90
38090;DHT22;23904;52.322;10.232;2023-02-18T16:51:02;10.10;99.90
38090;DHT22;23904;52.322;10.232;2023-02-18T16:53:31;10.10;99.90
38090;DHT22;23904;52.322;10.232;2023-02-18T16:55:57;10.20;99.90
38090;DHT22;23904;52.322;10.232;2023-02-18T16:58:22;10.20;99.90
38090;DHT22;23904;52.322;10.232;2023-02-18T17:00:50;10.20;99.90
38090;DHT22;23904;52.322;10.232;2023-02-18T17:03:17;10.20;99.90
38090;DHT22;23904;52.322;10.232;2023-02-18T17:05:43;10.10;99.90
38090;DHT22;23904;52.322;10.232;2023-02-18T17:10:45;10.10;99.90
38090;DHT22;23904;52.322;10.232;2023-02-18T17:13:20;10.10;99.90
38090;DHT22;23904;52.322;10.232;2023-02-18T17:15:50;10.10;99.90
38090;DHT22;23904;52.322;10.232;2023-02-18T17:18:17;10.10;99.90
38090;DHT22;23904;52.322;10.232;2023-02-18T17:20:43;10.10;99.90
38090;DHT22;23904;52.322;10.232;2023-02-18T17:23:19;10.10;99.90
38090;DHT22;23904;52.322;10.232;2023-02-18T17:25:48;10.10;99.90
38090;DHT22;23904;52.322;10.232;2023-02-18T17:28:14;10.10;99.90
38090;DHT22;23904;52.322;10.232;2023-02-18T17:30:46;10.10;99.90
38090;DHT22;23904;52.322;10.232;2023-02-18T17:33:17;10.10;99.90
38090;DHT22;23904;52.322;10.232;2023-02-18T17:35:43;10.10;99.90
38090;DHT22;23904;52.322;10.232;2023-02-18T17:38:10;10.10;99.90
38090;DHT22;23904;52.322;10.232;2023-02-18T17:40:37;10.10;99.90
38090;DHT22;23904;52.322;10.232;2023-02-18T17:43:02;10.10;99.90
38090;DHT22;23904;52.322;10.232;2023-02-18T17:45:36;10.10;99.90
38090;DHT22;23904;52.322;10.232;2023-02-18T17:48:04;10.10;99.90
38090;DHT22;23904;52.322;10.232;2023-02-18T17:50:30;10.10;99.90